PWSweather.com
Personal Weather Stations
Station Observations
WISCHPK61
Green Bay Schmitt Park, Green Bay, WI 54311

Green Bay Schmitt ParkGreen Bay, WI 54311

Lat: 44.514277, Lon: -87.935067

Elevation: 735

Station Type: Acu Rite Pro Weather Center model 02032C

http://greenbayweathercam.com

High Low Average
Temperature 60.9°F16.1°C 41.5°F5.3°C 48.0°F8.9°C
Dew Point 60.6°F15.9°C 36.5°F2.5°C 47.0°F8.3°C
Winds Calm Calm Calm Calm Calm SCalm S
Wind Gusts -- -- --
Humidity 99% 68% 97%
Pressure 29.32 in992.9 mb 29.18 in988.1 mb -
Precipitation 1.32 in33.5 mm - -
Hour Temp Dew Point Humidity Winds Wind Gusts Pressure Precip Precip Rate Daily Precip Total
12:00 AM 48.2°F9.0°C 47.9°F8.8°C 99% Calm Calm -- 29.28 in991.5 mb - 0.00 in0.0 mm 0.00 in0.0 mm
01:00 AM 45.5°F7.5°C 45.2°F7.3°C 99% Calm Calm -- 29.30 in992.2 mb - 0.00 in0.0 mm 0.00 in0.0 mm
02:00 AM 42.5°F5.8°C 36.5°F2.5°C 79% Calm Calm -- 29.31 in992.6 mb - 0.00 in0.0 mm 0.00 in0.0 mm
03:00 AM 41.5°F5.3°C 41.2°F5.1°C 99% Calm Calm -- 29.30 in992.2 mb - 0.00 in0.0 mm 0.00 in0.0 mm
04:00 AM 41.5°F5.3°C 41.2°F5.1°C 99% Calm Calm -- 29.31 in992.6 mb - 0.00 in0.0 mm 0.00 in0.0 mm
05:00 AM 42.3°F5.7°C 42.0°F5.6°C 99% Calm Calm -- 29.32 in992.9 mb - 0.00 in0.0 mm 0.00 in0.0 mm
06:00 AM 42.6°F5.9°C 42.3°F5.7°C 99% Calm Calm -- 29.31 in992.6 mb - 0.00 in0.0 mm 0.00 in0.0 mm
07:00 AM 42.1°F5.6°C 41.8°F5.4°C 99% Calm Calm -- 29.32 in992.9 mb - 0.00 in0.0 mm 0.00 in0.0 mm
08:00 AM 43.1°F6.2°C 42.8°F6.0°C 99% Calm Calm -- 29.31 in992.6 mb - 0.00 in0.0 mm 0.00 in0.0 mm
09:00 AM 54.0°F12.2°C 53.7°F12.1°C 99% Calm Calm -- 29.31 in992.6 mb - 0.00 in0.0 mm 0.00 in0.0 mm
10:00 AM 53.2°F11.8°C 42.9°F6.1°C 68% Calm Calm -- 29.28 in991.5 mb - 0.00 in0.0 mm 0.00 in0.0 mm
11:00 AM 51.8°F11.0°C 51.5°F10.8°C 99% Calm Calm -- 29.29 in991.9 mb - 0.00 in0.0 mm 0.00 in0.0 mm
12:00 PM 54.4°F12.4°C 54.1°F12.3°C 99% Calm Calm -- 29.26 in990.9 mb - 0.00 in0.0 mm 0.00 in0.0 mm
01:00 PM 57.4°F14.1°C 57.1°F13.9°C 99% Calm Calm -- 29.25 in990.5 mb - 0.00 in0.0 mm 0.00 in0.0 mm
02:00 PM 55.4°F13.0°C 55.2°F12.9°C 99% Calm Calm -- 29.25 in990.5 mb - 0.00 in0.0 mm 0.00 in0.0 mm
03:00 PM 60.9°F16.1°C 60.6°F15.9°C 99% Calm Calm -- 29.25 in990.5 mb - 0.00 in0.0 mm 0.00 in0.0 mm
04:00 PM 57.7°F14.3°C 57.4°F14.1°C 99% Calm Calm -- 29.22 in989.5 mb - 0.00 in0.0 mm 0.00 in0.0 mm
05:00 PM 51.7°F10.9°C 51.4°F10.8°C 99% Calm Calm -- 29.22 in989.5 mb - 0.01 in0.3 mm 0.01 in0.3 mm
06:00 PM 47.8°F8.8°C 47.5°F8.6°C 99% Calm Calm -- 29.23 in989.8 mb - 0.04 in1.0 mm 0.05 in1.3 mm
07:00 PM 46.4°F8.0°C 46.1°F7.8°C 99% Calm Calm -- 29.20 in988.8 mb - 0.01 in0.3 mm 0.06 in1.5 mm
08:00 PM 46.9°F8.3°C 46.6°F8.1°C 99% Calm Calm -- 29.20 in988.8 mb - 0.00 in0.0 mm 0.06 in1.5 mm
09:00 PM 44.9°F7.2°C 44.6°F7.0°C 99% Calm Calm -- 29.19 in988.5 mb - 0.62 in15.7 mm 0.68 in17.3 mm
10:00 PM 43.5°F6.4°C 43.2°F6.2°C 99% Calm Calm -- 29.20 in988.8 mb - 0.49 in12.4 mm 1.17 in29.7 mm
11:00 PM 42.6°F5.9°C 42.3°F5.7°C 99% Calm Calm -- 29.19 in988.5 mb - 0.15 in3.8 mm 1.32 in33.5 mm